createdAt,value
2018-06-23T00:00:50.965Z,9.82
2018-06-23T00:03:19.300Z,9.74
2018-06-23T00:05:48.470Z,9.64
2018-06-23T00:08:16.780Z,9.57
2018-06-23T00:10:45.837Z,9.47
2018-06-23T00:13:14.489Z,9.44
2018-06-23T00:15:42.762Z,9.67
2018-06-23T00:18:12.185Z,9.55
2018-06-23T00:20:40.516Z,9.65
2018-06-23T00:23:08.927Z,9.73
2018-06-23T00:25:42.633Z,9.49
2018-06-23T00:28:11.847Z,9.41
2018-06-23T00:30:40.199Z,9.44
2018-06-23T00:33:08.453Z,9.33
2018-06-23T00:35:37.473Z,9.22
2018-06-23T00:38:05.782Z,9.13
2018-06-23T00:40:34.091Z,9.05
2018-06-23T00:43:02.415Z,8.99
2018-06-23T00:45:30.744Z,9.06
2018-06-23T00:47:59.075Z,9.04
2018-06-23T00:50:27.396Z,8.99
2018-06-23T00:52:55.881Z,8.94
2018-06-23T00:55:24.303Z,8.93
2018-06-23T00:57:52.631Z,8.92
2018-06-23T01:00:21.014Z,8.92
2018-06-23T01:02:49.293Z,8.94
2018-06-23T01:05:17.566Z,8.99
2018-06-23T01:07:46.072Z,8.89
2018-06-23T01:10:14.339Z,8.91
2018-06-23T01:12:42.961Z,8.86
2018-06-23T01:15:11.559Z,8.79
2018-06-23T01:17:39.877Z,8.72
2018-06-23T01:20:08.166Z,8.88
2018-06-23T01:22:36.532Z,9.07
2018-06-23T01:25:05.085Z,9.13
2018-06-23T01:27:33.389Z,9.15
2018-06-23T01:30:01.981Z,9.23
2018-06-23T01:32:30.342Z,9.05
2018-06-23T01:34:58.646Z,8.80
2018-06-23T01:40:22.177Z,8.73
2018-06-23T01:42:50.482Z,8.72
2018-06-23T01:45:18.832Z,8.60
2018-06-23T01:47:47.215Z,8.49
2018-06-23T01:50:15.601Z,8.44
2018-06-23T01:52:43.974Z,8.43
2018-06-23T01:55:12.304Z,8.34
2018-06-23T01:57:40.754Z,8.32
2018-06-23T02:00:09.131Z,8.34
2018-06-23T02:02:37.592Z,8.29
2018-06-23T02:05:06.046Z,8.29
2018-06-23T02:07:34.370Z,8.21
2018-06-23T02:10:02.755Z,8.27
2018-06-23T02:12:31.176Z,8.29
2018-06-23T02:15:05.538Z,8.21
2018-06-23T02:17:39.075Z,8.20
2018-06-23T02:20:12.807Z,8.22
2018-06-23T02:22:46.253Z,8.21
2018-06-23T02:25:19.866Z,8.20
2018-06-23T02:27:53.418Z,8.18
2018-06-23T02:30:27.194Z,8.22
2018-06-23T02:32:55.918Z,8.28
2018-06-23T02:35:25.166Z,8.21
2018-06-23T02:37:53.618Z,8.22
2018-06-23T02:40:21.978Z,8.18
2018-06-23T02:42:50.308Z,8.02
2018-06-23T02:45:18.709Z,8.05
2018-06-23T02:47:47.719Z,8.00
2018-06-23T02:50:16.020Z,7.97
2018-06-23T02:52:44.311Z,7.96
2018-06-23T02:55:12.645Z,7.91
2018-06-23T02:57:41.020Z,7.85
2018-06-23T03:00:09.360Z,7.90
2018-06-23T03:02:37.838Z,7.99
2018-06-23T03:05:06.212Z,8.01
2018-06-23T03:07:34.595Z,8.06
2018-06-23T03:10:02.950Z,8.04
2018-06-23T03:12:31.296Z,8.11
2018-06-23T03:14:59.642Z,8.18
2018-06-23T03:17:27.974Z,8.27
2018-06-23T03:19:56.348Z,8.21
2018-06-23T03:22:24.673Z,8.18
2018-06-23T03:24:52.994Z,8.27
2018-06-23T03:27:21.323Z,8.26
2018-06-23T03:29:49.655Z,8.28
2018-06-23T03:32:17.944Z,8.41
2018-06-23T03:34:46.350Z,8.72
2018-06-23T03:37:14.721Z,9.13
2018-06-23T03:39:43.068Z,9.27
2018-06-23T03:42:11.463Z,9.29
2018-06-23T03:44:39.809Z,9.59
2018-06-23T03:47:08.168Z,9.60
2018-06-23T03:49:36.532Z,9.68
2018-06-23T03:52:04.848Z,9.75
2018-06-23T03:54:33.378Z,9.65
2018-06-23T03:57:01.813Z,9.66
2018-06-23T03:59:30.156Z,9.70
2018-06-23T04:01:58.494Z,9.53
2018-06-23T04:04:26.906Z,9.38
2018-06-23T04:06:55.276Z,9.35
2018-06-23T04:09:23.675Z,9.29
2018-06-23T04:11:52.037Z,9.20
2018-06-23T04:14:20.363Z,9.31
2018-06-23T04:16:48.819Z,9.39
2018-06-23T04:19:17.210Z,9.45
2018-06-23T04:21:45.529Z,9.37
2018-06-23T04:24:13.851Z,9.45
2018-06-23T04:26:42.194Z,9.35
2018-06-23T04:29:10.527Z,9.30
2018-06-23T04:31:39.303Z,9.39
2018-06-23T04:34:07.671Z,9.57
2018-06-23T04:36:36.598Z,9.66
2018-06-23T04:39:07.184Z,9.68
2018-06-23T04:41:35.825Z,9.70
2018-06-23T04:44:04.237Z,9.66
2018-06-23T04:46:32.621Z,9.59
2018-06-23T04:49:01.052Z,9.50
2018-06-23T04:51:29.382Z,9.44
2018-06-23T04:53:57.784Z,9.43
2018-06-23T04:56:26.120Z,9.42
2018-06-23T04:58:54.497Z,9.46
2018-06-23T05:01:22.905Z,9.52
2018-06-23T05:03:51.257Z,9.61
2018-06-23T05:06:20.507Z,9.80
2018-06-23T05:08:58.110Z,9.98
2018-06-23T05:11:26.559Z,10.16
2018-06-23T05:13:54.930Z,10.35
2018-06-23T05:16:23.341Z,10.66
2018-06-23T05:18:51.687Z,10.68
2018-06-23T05:21:20.137Z,10.72
2018-06-23T05:23:48.490Z,10.67
2018-06-23T05:26:16.846Z,10.68
2018-06-23T05:28:45.233Z,10.68
2018-06-23T05:31:13.592Z,10.77
2018-06-23T05:33:42.032Z,10.81
2018-06-23T05:36:10.366Z,10.80
2018-06-23T05:38:38.747Z,10.87
2018-06-23T05:41:07.101Z,10.90
2018-06-23T05:43:35.523Z,10.85
2018-06-23T05:46:04.011Z,10.77
2018-06-23T05:48:32.385Z,10.84
2018-06-23T05:51:00.737Z,10.94
2018-06-23T05:53:29.160Z,11.07
2018-06-23T05:55:57.815Z,11.18
2018-06-23T05:58:26.210Z,11.41
2018-06-23T06:00:54.588Z,11.65
2018-06-23T06:03:23.159Z,11.75
2018-06-23T06:05:51.543Z,11.95
2018-06-23T06:08:19.915Z,12.07
2018-06-23T06:10:48.229Z,12.22
2018-06-23T06:13:16.616Z,12.35
2018-06-23T06:15:45.541Z,12.40
2018-06-23T06:18:13.896Z,12.53
2018-06-23T06:20:42.312Z,12.63
2018-06-23T06:23:10.711Z,12.95
2018-06-23T06:25:39.050Z,13.16
2018-06-23T06:28:08.362Z,13.38
2018-06-23T06:30:36.694Z,13.52
2018-06-23T06:33:05.034Z,13.69
2018-06-23T06:35:33.451Z,13.73
2018-06-23T06:38:01.801Z,13.73
2018-06-23T06:40:30.085Z,13.85
2018-06-23T06:42:58.536Z,13.80
2018-06-23T06:45:26.898Z,13.95
2018-06-23T06:47:55.235Z,14.16
2018-06-23T06:50:23.636Z,14.37
2018-06-23T06:52:52.288Z,14.46
2018-06-23T06:55:20.621Z,14.60
2018-06-23T06:57:48.983Z,14.59
2018-06-23T07:00:17.378Z,14.49
2018-06-23T07:02:45.747Z,14.68
2018-06-23T07:05:14.158Z,14.67
2018-06-23T07:07:42.558Z,14.67
2018-06-23T07:10:11.509Z,14.95
2018-06-23T07:12:39.854Z,15.24
2018-06-23T07:15:12.127Z,15.26
2018-06-23T07:17:40.899Z,15.54
2018-06-23T07:20:09.354Z,16.10
2018-06-23T07:22:37.840Z,16.51
2018-06-23T07:25:06.367Z,16.67
2018-06-23T07:27:34.812Z,17.03
2018-06-23T07:30:03.694Z,17.32
2018-06-23T07:32:32.132Z,17.47
2018-06-23T07:35:00.649Z,17.11
2018-06-23T07:37:29.006Z,16.45
2018-06-23T07:39:57.430Z,16.40
2018-06-23T07:42:26.354Z,16.85
2018-06-23T07:44:55.289Z,16.92
2018-06-23T07:47:23.717Z,16.80
2018-06-23T07:49:52.109Z,16.82
2018-06-23T07:52:20.615Z,17.61
2018-06-23T07:54:49.496Z,17.26
2018-06-23T07:57:18.231Z,18.37
2018-06-23T07:59:46.819Z,18.57
2018-06-23T08:02:15.368Z,18.77
2018-06-23T08:04:43.842Z,18.86
2018-06-23T08:07:12.232Z,19.02
2018-06-23T08:09:40.577Z,18.60
2018-06-23T08:12:08.892Z,18.03
2018-06-23T08:14:37.899Z,18.06
2018-06-23T08:17:06.393Z,18.05
2018-06-23T08:19:34.995Z,18.63
2018-06-23T08:22:03.420Z,18.98
2018-06-23T08:24:31.794Z,18.94
2018-06-23T08:27:00.367Z,18.72
2018-06-23T08:29:29.025Z,18.53
2018-06-23T08:31:57.453Z,18.41
2018-06-23T08:34:25.868Z,17.76
2018-06-23T08:36:54.239Z,18.42
2018-06-23T08:39:22.739Z,18.84
2018-06-23T08:41:51.234Z,19.14
2018-06-23T08:44:19.627Z,19.23
2018-06-23T08:46:49.049Z,18.83
2018-06-23T08:49:17.461Z,17.97
2018-06-23T08:51:46.889Z,18.41
2018-06-23T08:54:15.253Z,17.81
2018-06-23T08:56:43.774Z,18.28
2018-06-23T09:00:21.223Z,19.69
2018-06-23T09:02:49.856Z,20.03
2018-06-23T09:05:21.990Z,19.50
2018-06-23T09:07:50.478Z,20.07
2018-06-23T09:10:19.974Z,19.55
2018-06-23T09:12:48.342Z,20.05
2018-06-23T09:15:16.792Z,19.37
2018-06-23T09:17:45.287Z,19.11
2018-06-23T09:20:13.817Z,18.81
2018-06-23T09:22:42.241Z,18.69
2018-06-23T09:25:10.754Z,18.31
2018-06-23T09:27:39.333Z,17.95
2018-06-23T09:30:07.902Z,18.15
2018-06-23T09:32:36.317Z,18.39
2018-06-23T09:35:04.645Z,18.92
2018-06-23T09:37:33.186Z,19.29
2018-06-23T09:40:01.537Z,18.80
2018-06-23T09:42:29.858Z,18.25
2018-06-23T09:44:58.272Z,18.47
2018-06-23T09:47:26.810Z,18.42
2018-06-23T09:49:55.222Z,18.58
2018-06-23T09:52:23.610Z,18.30
2018-06-23T09:54:52.073Z,18.86
2018-06-23T09:57:20.427Z,18.68
2018-06-23T09:59:48.930Z,18.89
2018-06-23T10:02:17.292Z,19.05
2018-06-23T10:04:45.634Z,18.85
2018-06-23T10:07:14.143Z,19.91
2018-06-23T10:09:42.472Z,20.44
2018-06-23T10:12:10.949Z,21.41
2018-06-23T10:14:39.388Z,21.17
2018-06-23T10:17:07.859Z,19.92
2018-06-23T10:19:36.195Z,19.78
2018-06-23T10:22:04.569Z,19.10
2018-06-23T10:24:33.203Z,19.01
2018-06-23T10:27:01.940Z,19.16
2018-06-23T10:29:33.588Z,20.30
2018-06-23T10:32:05.001Z,20.76
2018-06-23T10:34:33.469Z,21.07
2018-06-23T10:37:01.971Z,21.31
2018-06-23T10:39:32.573Z,21.40
2018-06-23T10:42:01.484Z,21.88
2018-06-23T10:44:29.819Z,21.91
2018-06-23T10:46:58.107Z,21.30
2018-06-23T10:49:26.393Z,21.65
2018-06-23T10:51:54.659Z,21.26
2018-06-23T10:54:22.936Z,21.77
2018-06-23T10:56:51.255Z,21.25
2018-06-23T10:59:19.586Z,21.18
2018-06-23T11:01:48.018Z,20.02
2018-06-23T11:04:16.317Z,20.26
2018-06-23T11:06:44.715Z,19.06
2018-06-23T11:09:13.119Z,19.52
2018-06-23T11:11:41.453Z,19.07
2018-06-23T11:14:09.784Z,19.79
2018-06-23T11:16:38.068Z,19.99
2018-06-23T11:19:06.489Z,20.07
2018-06-23T11:21:34.812Z,19.69
2018-06-23T11:24:03.184Z,19.34
2018-06-23T11:26:31.473Z,19.64
2018-06-23T11:28:59.791Z,19.84
2018-06-23T11:31:28.079Z,20.23
2018-06-23T11:33:56.472Z,20.78
2018-06-23T11:36:24.939Z,21.95
2018-06-23T11:38:53.225Z,22.17
2018-06-23T11:41:21.551Z,22.40
2018-06-23T11:43:50.058Z,22.19
2018-06-23T11:46:18.373Z,21.20
2018-06-23T11:48:46.637Z,19.72
2018-06-23T11:51:14.980Z,20.80
2018-06-23T11:53:43.328Z,20.63
2018-06-23T11:56:12.282Z,21.10
2018-06-23T11:58:41.203Z,21.57
2018-06-23T12:01:10.851Z,21.32
2018-06-23T12:03:39.199Z,21.17
2018-06-23T12:06:07.531Z,22.77
2018-06-23T12:08:37.675Z,24.18
2018-06-23T12:11:06.277Z,24.76
2018-06-23T12:13:34.625Z,26.14
2018-06-23T12:16:02.981Z,26.20
2018-06-23T12:18:31.432Z,26.54
2018-06-23T12:20:59.790Z,26.17
2018-06-23T12:23:28.126Z,25.82
2018-06-23T12:25:56.735Z,25.68
2018-06-23T12:28:25.072Z,26.70
2018-06-23T12:30:53.625Z,27.53
2018-06-23T12:33:21.909Z,26.01
2018-06-23T12:35:50.234Z,27.54
2018-06-23T12:40:47.645Z,29.75
2018-06-23T12:43:16.025Z,31.17
2018-06-23T12:45:44.333Z,30.11
2018-06-23T12:48:12.681Z,28.83
2018-06-23T12:50:40.966Z,29.64
2018-06-23T12:53:09.329Z,30.24
2018-06-23T12:55:37.679Z,29.88
2018-06-23T12:58:06.028Z,27.30
2018-06-23T13:00:34.311Z,27.76
2018-06-23T13:03:02.675Z,28.19
2018-06-23T13:05:30.979Z,27.64
2018-06-23T13:07:59.329Z,27.27
2018-06-23T13:10:27.724Z,28.06
2018-06-23T13:12:56.108Z,28.77
2018-06-23T13:15:24.481Z,29.82
2018-06-23T13:17:52.798Z,29.22
2018-06-23T13:20:21.175Z,28.50
2018-06-23T13:22:50.099Z,28.14
2018-06-23T13:25:18.442Z,28.36
2018-06-23T13:27:46.775Z,30.59
2018-06-23T13:30:15.154Z,32.72
2018-06-23T13:32:43.588Z,33.89
2018-06-23T13:35:12.144Z,34.70
2018-06-23T13:37:40.501Z,33.51
2018-06-23T13:40:08.981Z,31.96
2018-06-23T13:42:37.328Z,30.90
2018-06-23T13:45:06.229Z,32.17
2018-06-23T13:47:34.519Z,32.56
2018-06-23T13:50:03.132Z,33.69
2018-06-23T13:52:31.552Z,33.13
2018-06-23T13:54:59.957Z,34.19
2018-06-23T13:57:28.371Z,35.66
2018-06-23T13:59:56.750Z,33.21
2018-06-23T14:02:25.133Z,33.31
2018-06-23T14:04:53.556Z,34.07
2018-06-23T14:07:22.006Z,32.27
2018-06-23T14:09:50.393Z,32.76
2018-06-23T14:12:18.748Z,33.22
2018-06-23T14:14:47.073Z,34.64
2018-06-23T14:17:15.522Z,34.71
2018-06-23T14:19:43.910Z,36.79
2018-06-23T14:22:12.332Z,36.65
2018-06-23T14:24:40.589Z,36.42
2018-06-23T14:27:08.872Z,36.45
2018-06-23T14:29:37.369Z,35.11
2018-06-23T14:32:05.924Z,34.52
2018-06-23T14:34:34.064Z,33.14
2018-06-23T14:37:02.700Z,33.36
2018-06-23T14:39:31.147Z,32.13
2018-06-23T14:41:59.628Z,30.13
2018-06-23T14:44:28.016Z,30.46
2018-06-23T14:46:56.454Z,31.73
2018-06-23T14:49:24.715Z,33.77
2018-06-23T14:51:53.171Z,36.44
2018-06-23T14:54:21.684Z,35.81
2018-06-23T14:56:50.129Z,37.82
2018-06-23T14:59:18.476Z,36.39
2018-06-23T15:01:46.927Z,36.35
2018-06-23T15:04:15.387Z,36.71
2018-06-23T15:06:43.784Z,37.69
2018-06-23T15:09:23.437Z,37.47
2018-06-23T15:12:02.868Z,37.87
2018-06-23T15:14:31.292Z,37.21
2018-06-23T15:16:59.636Z,38.21
2018-06-23T15:19:28.188Z,38.47
2018-06-23T15:21:56.690Z,36.76
2018-06-23T15:24:25.231Z,35.89
2018-06-23T15:26:53.618Z,37.92
2018-06-23T15:29:22.586Z,38.10
2018-06-23T15:31:50.309Z,35.97
2018-06-23T15:34:18.641Z,37.64
2018-06-23T15:36:46.983Z,36.77
2018-06-23T15:39:15.529Z,33.16
2018-06-23T15:41:43.907Z,34.58
2018-06-23T15:44:12.273Z,39.70
2018-06-23T15:46:40.644Z,43.25
2018-06-23T15:49:08.902Z,41.50
2018-06-23T15:51:37.219Z,37.89
2018-06-23T15:54:05.898Z,36.92
2018-06-23T15:56:34.359Z,37.74
2018-06-23T15:59:02.715Z,39.35
2018-06-23T16:01:31.580Z,37.81
2018-06-23T16:03:59.940Z,37.72
2018-06-23T16:06:28.321Z,36.16
2018-06-23T16:08:56.652Z,38.18
2018-06-23T16:11:24.952Z,41.21
2018-06-23T16:13:53.248Z,38.76
2018-06-23T16:16:21.588Z,34.78
2018-06-23T16:18:49.914Z,37.35
2018-06-23T16:21:18.265Z,32.58
2018-06-23T16:23:46.513Z,32.96
2018-06-23T16:26:14.920Z,34.38
2018-06-23T16:28:43.208Z,30.64
2018-06-23T16:31:11.824Z,28.68
2018-06-23T16:33:40.086Z,29.39
2018-06-23T16:36:08.497Z,31.29
2018-06-23T16:38:36.948Z,31.29
2018-06-23T16:41:05.309Z,27.62
2018-06-23T16:43:33.617Z,25.37
2018-06-23T16:46:01.994Z,22.86
2018-06-23T16:48:30.355Z,22.32
2018-06-23T16:50:58.667Z,21.66
2018-06-23T16:53:27.073Z,21.88
2018-06-23T16:55:55.419Z,21.83
2018-06-23T16:58:23.742Z,21.91
2018-06-23T17:00:52.159Z,21.84
2018-06-23T17:03:20.476Z,21.65
2018-06-23T17:05:48.787Z,21.60
2018-06-23T17:08:17.365Z,21.46
2018-06-23T17:10:46.789Z,21.52
2018-06-23T17:13:15.157Z,21.81
2018-06-23T17:15:43.600Z,22.50
2018-06-23T17:18:12.109Z,24.83
2018-06-23T17:20:40.435Z,24.52
2018-06-23T17:23:09.379Z,27.75
2018-06-23T17:25:38.040Z,24.89
2018-06-23T17:28:06.759Z,22.86
2018-06-23T17:30:35.309Z,22.13
2018-06-23T17:33:03.827Z,21.96
2018-06-23T17:35:32.283Z,21.91
2018-06-23T17:38:00.738Z,21.44
2018-06-23T17:40:29.205Z,21.24
2018-06-23T17:42:57.630Z,21.54
2018-06-23T17:45:26.106Z,21.09
2018-06-23T17:47:54.646Z,21.47
2018-06-23T17:50:23.205Z,22.92
2018-06-23T17:52:51.521Z,22.55
2018-06-23T17:55:20.203Z,22.31
2018-06-23T17:57:49.846Z,22.10
2018-06-23T18:00:18.073Z,21.48
2018-06-23T18:02:47.036Z,21.22
2018-06-23T18:05:15.481Z,20.11
2018-06-23T18:07:43.816Z,20.19
2018-06-23T18:10:13.567Z,19.99
2018-06-23T18:12:42.381Z,20.02
2018-06-23T18:15:11.121Z,19.74
2018-06-23T18:17:39.533Z,19.47
2018-06-23T18:20:09.015Z,18.96
2018-06-23T18:22:37.951Z,19.05
2018-06-23T18:25:06.554Z,19.00
2018-06-23T18:27:34.838Z,18.77
2018-06-23T18:30:03.804Z,18.81
2018-06-23T18:32:32.160Z,18.58
2018-06-23T18:35:00.681Z,18.39
2018-06-23T18:37:28.948Z,18.23
2018-06-23T18:39:57.273Z,18.08
2018-06-23T18:42:26.005Z,18.03
2018-06-23T18:44:54.409Z,17.90
2018-06-23T18:47:22.816Z,17.78
2018-06-23T18:49:51.188Z,18.06
2018-06-23T18:52:19.516Z,18.22
2018-06-23T18:54:47.807Z,18.14
2018-06-23T18:57:16.186Z,17.73
2018-06-23T18:59:44.669Z,17.60
2018-06-23T19:02:13.084Z,17.45
2018-06-23T19:04:41.436Z,17.26
2018-06-23T19:07:09.695Z,17.05
2018-06-23T19:09:38.087Z,16.90
2018-06-23T19:12:06.487Z,16.73
2018-06-23T19:14:34.973Z,16.67
2018-06-23T19:17:03.410Z,16.57
2018-06-23T19:19:31.698Z,16.47
2018-06-23T19:22:00.155Z,16.32
2018-06-23T19:24:28.476Z,16.23
2018-06-23T19:26:56.860Z,16.14
2018-06-23T19:29:25.441Z,16.09
2018-06-23T19:31:53.959Z,15.98
2018-06-23T19:34:22.416Z,15.97
2018-06-23T19:36:50.899Z,15.90
2018-06-23T19:39:19.218Z,15.81
2018-06-23T19:41:47.551Z,15.78
2018-06-23T19:44:15.975Z,15.76
2018-06-23T19:46:44.278Z,15.70
2018-06-23T19:49:12.707Z,15.69
2018-06-23T19:51:46.121Z,15.66
2018-06-23T19:54:14.603Z,15.67
2018-06-23T19:56:43.053Z,15.63
2018-06-23T19:59:11.333Z,15.67
2018-06-23T20:01:39.778Z,15.61
2018-06-23T20:04:08.183Z,15.58
2018-06-23T20:06:39.929Z,15.52
2018-06-23T20:09:08.863Z,15.54
2018-06-23T20:14:41.748Z,15.48
2018-06-23T20:17:11.028Z,15.41
2018-06-23T20:19:39.684Z,15.37
2018-06-23T20:22:10.198Z,15.38
2018-06-23T20:24:38.546Z,15.33
2018-06-23T20:27:07.042Z,15.27
2018-06-23T20:29:37.285Z,15.18
2018-06-23T20:32:05.872Z,15.12
2018-06-23T20:34:34.316Z,15.04
2018-06-23T20:37:02.670Z,14.97
2018-06-23T20:39:31.123Z,14.91
2018-06-23T20:41:59.457Z,14.82
2018-06-23T20:44:27.933Z,14.73
2018-06-23T20:46:56.499Z,14.68
2018-06-23T20:49:24.847Z,14.59
2018-06-23T20:51:53.188Z,14.54
2018-06-23T20:54:21.526Z,14.42
2018-06-23T20:56:50.209Z,14.32
2018-06-23T20:59:19.385Z,14.27
2018-06-23T21:01:47.914Z,14.32
2018-06-23T21:04:16.367Z,14.38
2018-06-23T21:06:44.935Z,14.35
2018-06-23T21:09:13.327Z,14.37
2018-06-23T21:11:41.705Z,14.39
2018-06-23T21:14:10.120Z,14.37
2018-06-23T21:16:38.497Z,14.32
2018-06-23T21:19:06.856Z,14.26
2018-06-23T21:21:35.368Z,14.15
2018-06-23T21:24:03.789Z,14.16
2018-06-23T21:26:32.206Z,14.13
2018-06-23T21:29:00.728Z,14.02
2018-06-23T21:31:29.511Z,13.94
2018-06-23T21:33:57.971Z,13.89
2018-06-23T21:36:26.471Z,13.88
2018-06-23T21:38:54.933Z,13.91
2018-06-23T21:41:23.564Z,13.91
2018-06-23T21:43:52.027Z,13.98
2018-06-23T21:49:15.738Z,14.17
2018-06-23T21:51:44.376Z,14.22
2018-06-23T21:54:13.914Z,14.28
2018-06-23T21:56:42.567Z,14.32
2018-06-23T21:59:11.115Z,14.34
2018-06-23T22:01:39.371Z,14.37
2018-06-23T22:04:08.239Z,14.38
2018-06-23T22:06:36.762Z,14.37
2018-06-23T22:09:07.801Z,14.35
2018-06-23T22:11:36.562Z,14.36
2018-06-23T22:14:05.208Z,14.36
2018-06-23T22:16:33.804Z,14.35
2018-06-23T22:19:02.308Z,14.35
2018-06-23T22:21:31.535Z,14.37
2018-06-23T22:23:59.996Z,14.40
2018-06-23T22:26:28.487Z,14.37
2018-06-23T22:28:57.596Z,14.34
2018-06-23T22:31:25.960Z,14.35
2018-06-23T22:33:54.824Z,14.35
2018-06-23T22:36:23.488Z,14.34
2018-06-23T22:38:51.855Z,14.35
2018-06-23T22:41:20.447Z,14.32
2018-06-23T22:43:48.744Z,14.29
2018-06-23T22:46:17.125Z,14.27
2018-06-23T22:48:45.778Z,14.24
2018-06-23T22:51:14.121Z,14.22
2018-06-23T22:53:42.593Z,14.19
2018-06-23T22:56:10.952Z,14.17
2018-06-23T22:58:39.456Z,14.18
2018-06-23T23:01:07.951Z,14.18
2018-06-23T23:03:36.265Z,14.20
2018-06-23T23:06:04.770Z,14.20
2018-06-23T23:08:34.075Z,14.22
2018-06-23T23:11:02.398Z,14.15
2018-06-23T23:13:30.803Z,14.08
2018-06-23T23:15:59.152Z,13.96
2018-06-23T23:18:27.532Z,13.82
2018-06-23T23:20:55.807Z,13.68
2018-06-23T23:23:24.075Z,13.59
2018-06-23T23:25:52.442Z,13.49
2018-06-23T23:28:21.236Z,13.42
2018-06-23T23:30:51.415Z,13.41
2018-06-23T23:33:21.531Z,13.37
2018-06-23T23:35:50.258Z,13.34
2018-06-23T23:38:18.675Z,13.28
2018-06-23T23:40:47.186Z,13.24
2018-06-23T23:43:15.501Z,13.17
2018-06-23T23:45:43.792Z,13.11
2018-06-23T23:48:12.166Z,13.02
2018-06-23T23:50:40.516Z,12.95
2018-06-23T23:53:09.268Z,12.79
2018-06-23T23:55:38.336Z,12.79
2018-06-23T23:58:06.686Z,12.72
